createdAt,value
2022-10-16T00:00:43.438Z,18.2
2022-10-16T00:06:21.666Z,18.1
2022-10-16T00:11:57.485Z,18.1
2022-10-16T00:17:36.426Z,18
2022-10-16T00:23:11.363Z,17.9
2022-10-16T00:29:06.011Z,17.9
2022-10-16T00:35:00.044Z,17.9
2022-10-16T00:40:57.483Z,17.9
2022-10-16T00:46:52.273Z,17.9
2022-10-16T00:53:09.027Z,17.9
2022-10-16T00:58:44.062Z,17.9
2022-10-16T01:04:18.933Z,17.9
2022-10-16T01:10:21.132Z,17.9
2022-10-16T01:15:55.851Z,17.9
2022-10-16T01:21:47.172Z,17.9
2022-10-16T01:27:27.397Z,17.9
2022-10-16T01:33:24.893Z,17.9
2022-10-16T01:39:38.275Z,17.8
2022-10-16T01:45:35.262Z,17.8
2022-10-16T01:51:24.652Z,17.8
2022-10-16T01:57:13.942Z,17.7
2022-10-16T02:02:51.753Z,17.8
2022-10-16T02:08:26.688Z,17.7
2022-10-16T02:14:23.264Z,17.7
2022-10-16T02:20:06.551Z,17.7
2022-10-16T02:26:07.603Z,17.8
2022-10-16T02:31:58.610Z,17.7
2022-10-16T02:37:41.749Z,17.8
2022-10-16T02:43:16.731Z,17.8
2022-10-16T02:50:14.881Z,17.8
2022-10-16T02:55:55.687Z,17.8
2022-10-16T03:01:30.583Z,17.8
2022-10-16T05:54:19.001Z,17.3
2022-10-16T05:59:53.851Z,17.3
2022-10-16T06:05:28.621Z,17.3
2022-10-16T06:11:15.558Z,17.3
2022-10-16T06:16:55.299Z,17.4
2022-10-16T06:22:34.827Z,17.4
2022-10-16T06:28:13.653Z,17.4
2022-10-16T06:33:48.766Z,17.4
2022-10-16T06:39:23.490Z,17.3
2022-10-16T06:45:05.082Z,17.3
2022-10-16T06:50:43.396Z,17.3
2022-10-16T06:56:38.790Z,17.3
2022-10-16T07:02:46.298Z,17
2022-10-16T07:08:33.838Z,16.6
2022-10-16T07:14:08.640Z,16.6
2022-10-16T07:19:52.787Z,16.8
2022-10-16T07:25:27.668Z,16.6
2022-10-16T07:31:07.047Z,16.7
2022-10-16T07:36:48.562Z,17
2022-10-16T07:42:26.411Z,17.7
2022-10-16T07:48:03.203Z,18.3
2022-10-16T07:53:47.744Z,18.7
2022-10-16T07:59:24.997Z,19.4
2022-10-16T08:05:02.441Z,19.3
2022-10-16T08:10:37.527Z,18.8
2022-10-16T08:16:12.410Z,18.8
2022-10-16T08:22:01.103Z,19.4
2022-10-16T08:27:50.114Z,19.8
2022-10-16T08:33:38.932Z,20.3
2022-10-16T08:39:18.609Z,20.6
2022-10-16T08:45:00.117Z,20.5
2022-10-16T08:50:44.982Z,21.5
2022-10-16T08:56:20.397Z,22.2
2022-10-16T09:02:24.323Z,21.7
2022-10-16T09:08:04.587Z,22.3
2022-10-16T09:13:50.461Z,22.7
2022-10-16T09:19:37.898Z,22.8
2022-10-16T09:25:22.305Z,22.9
2022-10-16T09:30:57.161Z,23
2022-10-16T09:36:49.138Z,23.1
2022-10-16T09:42:27.467Z,23.2
2022-10-16T09:48:02.609Z,23.5
2022-10-16T09:53:38.102Z,23.6
2022-10-16T09:59:25.035Z,23.7
2022-10-16T10:05:15.994Z,23.7
2022-10-16T10:10:59.128Z,23.9
2022-10-16T10:16:39.011Z,24.2
2022-10-16T10:22:31.009Z,24.5
2022-10-16T10:28:15.597Z,24.8
2022-10-16T10:34:16.094Z,25
2022-10-16T10:40:52.447Z,24.3
2022-10-16T10:46:26.402Z,24.7
2022-10-16T10:52:06.146Z,25.5
2022-10-16T10:57:52.219Z,26.5
2022-10-16T11:03:34.402Z,26.5
2022-10-16T11:09:13.551Z,26.2
2022-10-16T11:14:58.516Z,26.2
2022-10-16T11:20:56.308Z,25.9
2022-10-16T11:27:03.115Z,25
2022-10-16T11:32:38.057Z,24.2
2022-10-16T11:38:13.156Z,23.9
2022-10-16T11:43:49.003Z,23.8
2022-10-16T11:49:23.693Z,23.9
2022-10-16T11:54:58.708Z,23.8
2022-10-16T12:00:33.875Z,23.8
2022-10-16T12:06:08.706Z,23.7
2022-10-16T12:11:44.088Z,23.6
2022-10-16T12:17:18.880Z,23.8
2022-10-16T12:22:53.713Z,24.2
2022-10-16T12:28:28.757Z,24.5
2022-10-16T12:34:05.046Z,24.7
2022-10-16T12:39:39.985Z,25
2022-10-16T12:45:35.847Z,25.2
2022-10-16T12:51:10.815Z,25.4
2022-10-16T12:56:51.816Z,25.5
2022-10-16T13:02:28.031Z,25.8
2022-10-16T13:08:02.822Z,26
2022-10-16T13:13:38.886Z,25.9
2022-10-16T13:19:13.844Z,26.1
2022-10-16T13:24:51.871Z,26.5
2022-10-16T13:30:30.611Z,26.8
2022-10-16T13:36:14.265Z,26.9
2022-10-16T13:42:11.042Z,26.7
2022-10-16T13:47:44.072Z,26.6
2022-10-16T13:53:42.734Z,27.2
2022-10-16T13:59:17.869Z,27.6
2022-10-16T14:05:02.630Z,27.8
2022-10-16T14:10:42.919Z,28.1
2022-10-16T14:16:38.895Z,28.3
2022-10-16T14:22:17.539Z,28.6
2022-10-16T14:27:52.588Z,28.8
2022-10-16T14:33:32.764Z,28.9
2022-10-16T14:39:24.379Z,29.1
2022-10-16T14:45:05.535Z,29.2
2022-10-16T14:50:40.665Z,28.8
2022-10-16T14:56:15.486Z,28.2
2022-10-16T15:01:50.361Z,27.8
2022-10-16T15:07:25.550Z,27.5
2022-10-16T15:13:04.688Z,27.3
2022-10-16T15:18:39.798Z,27.1
2022-10-16T15:24:16.394Z,26.8
2022-10-16T15:29:57.550Z,26.6
2022-10-16T15:35:32.741Z,26.4
2022-10-16T15:41:29.350Z,26.3
2022-10-16T15:47:03.878Z,26.6
2022-10-16T15:52:38.694Z,26.7
2022-10-16T15:58:14.360Z,26.5
2022-10-16T16:03:49.551Z,26.3
2022-10-16T16:09:24.880Z,26.5
2022-10-16T16:15:00.764Z,26.3
2022-10-16T16:20:47.654Z,25.9
2022-10-16T16:26:23.613Z,25.6
2022-10-16T16:31:59.570Z,25.8
2022-10-16T16:37:42.894Z,25.5
2022-10-16T16:43:39.791Z,24.9
2022-10-16T16:49:12.574Z,24.4
2022-10-16T16:54:48.168Z,24.2
2022-10-16T17:00:22.993Z,24
2022-10-16T17:05:58.257Z,23.6
2022-10-16T17:11:33.281Z,23.1
2022-10-16T17:17:09.215Z,22.8
2022-10-16T17:22:44.409Z,22.8
2022-10-16T17:28:28.335Z,22.7
2022-10-16T17:34:04.122Z,22.3
2022-10-16T17:39:44.037Z,22.1
2022-10-16T17:45:18.906Z,21.8
2022-10-16T17:50:55.087Z,21.5
2022-10-16T17:56:32.989Z,21.2
2022-10-16T18:02:31.109Z,21.1
2022-10-16T18:08:06.002Z,21.2
2022-10-16T18:13:41.850Z,21.2
2022-10-16T18:19:24.966Z,21.7
2022-10-16T18:25:01.125Z,21.9
2022-10-16T18:30:36.147Z,21.9
2022-10-16T18:36:11.195Z,22
2022-10-16T18:42:07.957Z,22
2022-10-16T18:47:40.605Z,22
2022-10-16T18:53:15.430Z,22
2022-10-16T18:58:52.364Z,22
2022-10-16T19:04:27.171Z,22
2022-10-16T19:10:02.358Z,22
2022-10-16T19:15:37.232Z,22
2022-10-16T19:21:13.628Z,22
2022-10-16T19:26:49.008Z,21.9
2022-10-16T19:32:25.206Z,21.9
2022-10-16T19:38:04.306Z,21.8
2022-10-16T19:44:01.099Z,21.7
2022-10-16T19:49:33.894Z,21.6
2022-10-16T19:55:09.705Z,21.6
2022-10-16T20:00:45.444Z,21.5
2022-10-16T20:06:20.427Z,21.5
2022-10-16T20:11:56.209Z,21.5
2022-10-16T20:17:31.215Z,21.4
2022-10-16T20:23:06.400Z,21.4
2022-10-16T20:28:42.798Z,21.4
2022-10-16T20:34:19.612Z,21.4
2022-10-16T20:39:54.638Z,21.4
2022-10-16T20:45:29.497Z,21.3
2022-10-16T20:51:04.376Z,21.2
2022-10-16T20:56:40.108Z,21.1
2022-10-16T21:02:15.282Z,21.1
2022-10-16T21:07:52.654Z,21.1
2022-10-16T21:13:29.944Z,21.1
2022-10-16T21:19:05.708Z,21.1
2022-10-16T21:24:40.521Z,20.9
2022-10-16T21:30:15.952Z,20.8
2022-10-16T21:35:50.855Z,20.8
2022-10-16T21:41:47.343Z,20.8
2022-10-16T21:47:20.329Z,20.9
2022-10-16T21:52:55.295Z,20.9
2022-10-16T21:58:31.062Z,20.8
2022-10-16T22:04:06.962Z,20.7
2022-10-16T22:09:42.202Z,20.7
2022-10-16T22:15:25.851Z,20.7
2022-10-16T22:21:00.974Z,20.6
2022-10-16T22:26:35.941Z,20.6
2022-10-16T22:32:12.439Z,20.6
2022-10-16T22:37:56.781Z,20.5
2022-10-16T22:43:50.916Z,20.5
2022-10-16T22:49:32.995Z,20.4
2022-10-16T22:55:08.180Z,20.4
2022-10-16T23:00:44.502Z,20.4
2022-10-16T23:06:20.224Z,20.4
2022-10-16T23:11:55.123Z,20.4
2022-10-16T23:17:33.930Z,20.4
2022-10-16T23:23:09.653Z,20.4
2022-10-16T23:28:46.688Z,20.4
2022-10-16T23:34:23.347Z,20.4
2022-10-16T23:39:59.031Z,20.4
2022-10-16T23:45:34.966Z,20.4
2022-10-16T23:51:12.648Z,20.4
2022-10-16T23:56:48.340Z,20.4
